sensor_id;sensor_type;location;lat;lon;timestamp;pressure;altitude;pressure_sealevel;temperature;humidity
76216;BME280;65010;50.190;18.930;2024-03-23T00:52:44;97679.81;;;11.92;47.29
76216;BME280;65010;50.190;18.930;2024-03-23T00:55:46;97678.81;;;11.93;47.21
76216;BME280;65010;50.190;18.930;2024-03-23T00:58:49;97673.75;;;11.92;47.32
76216;BME280;65010;50.190;18.930;2024-03-23T01:01:50;97674.53;;;11.92;47.43
76216;BME280;65010;50.190;18.930;2024-03-23T01:04:53;97666.25;;;11.95;47.40
76216;BME280;65010;50.190;18.930;2024-03-23T01:07:57;97664.84;;;11.99;47.34
76216;BME280;65010;50.190;18.930;2024-03-23T01:11:01;97665.88;;;12.05;47.35
76216;BME280;65010;50.190;18.930;2024-03-23T01:14:03;97662.22;;;12.06;47.53
76216;BME280;65010;50.190;18.930;2024-03-23T01:17:06;97660.81;;;12.10;47.50
76216;BME280;65010;50.190;18.930;2024-03-23T01:20:07;97656.38;;;12.11;48.17
76216;BME280;65010;50.190;18.930;2024-03-23T01:23:13;97647.66;;;12.10;48.38
76216;BME280;65010;50.190;18.930;2024-03-23T01:26:15;97645.44;;;12.07;48.52
76216;BME280;65010;50.190;18.930;2024-03-23T01:29:17;97638.72;;;12.04;48.29
76216;BME280;65010;50.190;18.930;2024-03-23T01:32:20;97637.72;;;11.99;48.10
76216;BME280;65010;50.190;18.930;2024-03-23T01:35:23;97629.81;;;11.99;48.33
76216;BME280;65010;50.190;18.930;2024-03-23T01:38:27;97629.78;;;11.92;47.72
76216;BME280;65010;50.190;18.930;2024-03-23T01:41:29;97629.56;;;11.80;47.55
76216;BME280;65010;50.190;18.930;2024-03-23T01:44:30;97624.09;;;11.75;47.71
76216;BME280;65010;50.190;18.930;2024-03-23T01:47:33;97626.91;;;11.74;47.57
76216;BME280;65010;50.190;18.930;2024-03-23T01:50:35;97615.56;;;11.66;47.66
76216;BME280;65010;50.190;18.930;2024-03-23T01:53:40;97618.41;;;11.65;47.73
76216;BME280;65010;50.190;18.930;2024-03-23T01:56:42;97617.00;;;11.69;47.51
76216;BME280;65010;50.190;18.930;2024-03-23T01:59:44;97612.16;;;11.73;48.14
76216;BME280;65010;50.190;18.930;2024-03-23T02:02:47;97614.59;;;11.81;47.72
76216;BME280;65010;50.190;18.930;2024-03-23T02:05:50;97607.88;;;11.72;47.75
76216;BME280;65010;50.190;18.930;2024-03-23T02:08:55;97597.75;;;11.68;47.82
76216;BME280;65010;50.190;18.930;2024-03-23T02:11:58;97605.84;;;11.67;47.74
76216;BME280;65010;50.190;18.930;2024-03-23T02:14:59;97600.59;;;11.67;47.57
76216;BME280;65010;50.190;18.930;2024-03-23T02:18:02;97589.88;;;11.68;47.83
76216;BME280;65010;50.190;18.930;2024-03-23T02:21:04;97596.72;;;11.69;47.53
76216;BME280;65010;50.190;18.930;2024-03-23T02:24:09;97588.22;;;11.67;47.54
76216;BME280;65010;50.190;18.930;2024-03-23T02:27:12;97589.88;;;11.68;47.69
76216;BME280;65010;50.190;18.930;2024-03-23T02:30:15;97590.84;;;11.67;47.84
76216;BME280;65010;50.190;18.930;2024-03-23T02:33:17;97588.63;;;11.64;47.86
76216;BME280;65010;50.190;18.930;2024-03-23T02:36:19;97578.50;;;11.68;47.88
76216;BME280;65010;50.190;18.930;2024-03-23T02:39:24;97579.09;;;11.70;47.54
76216;BME280;65010;50.190;18.930;2024-03-23T02:42:26;97585.41;;;11.69;47.75
76216;BME280;65010;50.190;18.930;2024-03-23T02:45:28;97556.88;;;11.73;48.07
76216;BME280;65010;50.190;18.930;2024-03-23T02:48:30;97573.66;;;11.78;48.07
76216;BME280;65010;50.190;18.930;2024-03-23T02:51:32;97565.75;;;11.78;47.92
76216;BME280;65010;50.190;18.930;2024-03-23T02:54:37;97543.91;;;11.78;48.03
76216;BME280;65010;50.190;18.930;2024-03-23T02:57:39;97562.94;;;11.80;47.97
76216;BME280;65010;50.190;18.930;2024-03-23T03:00:41;97559.88;;;11.76;47.64
76216;BME280;65010;50.190;18.930;2024-03-23T03:03:43;97559.69;;;11.78;48.03
76216;BME280;65010;50.190;18.930;2024-03-23T03:06:46;97558.88;;;11.77;47.91
76216;BME280;65010;50.190;18.930;2024-03-23T03:09:51;97552.81;;;11.77;47.92
76216;BME280;65010;50.190;18.930;2024-03-23T03:12:53;97558.88;;;11.77;48.24
76216;BME280;65010;50.190;18.930;2024-03-23T03:15:55;97549.34;;;11.76;50.19
76216;BME280;65010;50.190;18.930;2024-03-23T03:18:57;97538.44;;;11.73;49.78
76216;BME280;65010;50.190;18.930;2024-03-23T03:21:59;97533.56;;;11.69;49.82
76216;BME280;65010;50.190;18.930;2024-03-23T03:25:05;97513.31;;;11.63;50.92
76216;BME280;65010;50.190;18.930;2024-03-23T03:28:07;97517.78;;;11.63;51.57
76216;BME280;65010;50.190;18.930;2024-03-23T03:31:10;97525.63;;;11.49;51.47
76216;BME280;65010;50.190;18.930;2024-03-23T03:34:11;97530.09;;;11.42;51.84
76216;BME280;65010;50.190;18.930;2024-03-23T03:37:14;97522.56;;;11.39;51.90
76216;BME280;65010;50.190;18.930;2024-03-23T03:40:18;97519.53;;;11.36;51.62
76216;BME280;65010;50.190;18.930;2024-03-23T03:43:20;97521.34;;;11.35;52.73
76216;BME280;65010;50.190;18.930;2024-03-23T03:46:22;97513.69;;;11.40;53.76
76216;BME280;65010;50.190;18.930;2024-03-23T03:49:24;97511.44;;;11.44;54.72
76216;BME280;65010;50.190;18.930;2024-03-23T03:52:26;97498.72;;;11.41;54.36
76216;BME280;65010;50.190;18.930;2024-03-23T03:55:31;97491.19;;;11.38;54.99
76216;BME280;65010;50.190;18.930;2024-03-23T03:58:33;97503.53;;;11.31;54.19
76216;BME280;65010;50.190;18.930;2024-03-23T04:01:35;97498.03;;;11.19;54.51
76216;BME280;65010;50.190;18.930;2024-03-23T04:04:36;97504.50;;;11.16;55.02
76216;BME280;65010;50.190;18.930;2024-03-23T04:07:39;97485.88;;;11.18;55.09
76216;BME280;65010;50.190;18.930;2024-03-23T04:10:43;97486.28;;;11.15;55.40
76216;BME280;65010;50.190;18.930;2024-03-23T04:13:45;97503.28;;;11.12;55.04
76216;BME280;65010;50.190;18.930;2024-03-23T04:16:47;97495.16;;;11.07;55.59
76216;BME280;65010;50.190;18.930;2024-03-23T04:19:49;97482.63;;;11.09;56.43
76216;BME280;65010;50.190;18.930;2024-03-23T04:22:51;97475.16;;;11.13;56.65
76216;BME280;65010;50.190;18.930;2024-03-23T04:26:03;97455.72;;;11.07;56.27
76216;BME280;65010;50.190;18.930;2024-03-23T04:29:05;97470.69;;;11.13;55.33
76216;BME280;65010;50.190;18.930;2024-03-23T04:32:07;97466.66;;;11.11;55.50
76216;BME280;65010;50.190;18.930;2024-03-23T04:35:09;97463.41;;;11.15;56.58
76216;BME280;65010;50.190;18.930;2024-03-23T04:38:11;97458.75;;;11.17;56.94
76216;BME280;65010;50.190;18.930;2024-03-23T04:41:15;97451.66;;;11.18;57.24
76216;BME280;65010;50.190;18.930;2024-03-23T04:44:18;97441.97;;;11.18;57.45
76216;BME280;65010;50.190;18.930;2024-03-23T04:47:20;97450.50;;;11.20;57.71
76216;BME280;65010;50.190;18.930;2024-03-23T04:50:22;97450.69;;;11.19;57.81
76216;BME280;65010;50.190;18.930;2024-03-23T04:53:24;97457.97;;;11.17;57.79
76216;BME280;65010;50.190;18.930;2024-03-23T04:56:33;97450.25;;;11.15;57.90
76216;BME280;65010;50.190;18.930;2024-03-23T04:59:34;97448.66;;;11.14;58.39
76216;BME280;65010;50.190;18.930;2024-03-23T05:02:36;97439.94;;;11.14;58.31
76216;BME280;65010;50.190;18.930;2024-03-23T05:05:39;97449.66;;;11.13;58.47
76216;BME280;65010;50.190;18.930;2024-03-23T05:08:41;97451.66;;;11.11;58.29
76216;BME280;65010;50.190;18.930;2024-03-23T05:11:45;97450.06;;;11.10;58.13
76216;BME280;65010;50.190;18.930;2024-03-23T05:14:48;97440.13;;;11.05;58.06
76216;BME280;65010;50.190;18.930;2024-03-23T05:17:49;97439.69;;;11.02;58.26
76216;BME280;65010;50.190;18.930;2024-03-23T05:20:55;97445.78;;;11.02;58.30
76216;BME280;65010;50.190;18.930;2024-03-23T05:23:57;97440.13;;;10.99;57.01
76216;BME280;65010;50.190;18.930;2024-03-23T05:27:02;97434.44;;;10.95;56.74
76216;BME280;65010;50.190;18.930;2024-03-23T05:30:07;97434.44;;;10.95;56.51
76216;BME280;65010;50.190;18.930;2024-03-23T05:33:10;97436.88;;;10.97;56.57
76216;BME280;65010;50.190;18.930;2024-03-23T05:36:12;97432.03;;;11.00;57.38
76216;BME280;65010;50.190;18.930;2024-03-23T05:39:15;97430.22;;;11.01;57.79
76216;BME280;65010;50.190;18.930;2024-03-23T05:42:20;97431.44;;;11.12;57.47
76216;BME280;65010;50.190;18.930;2024-03-23T05:45:22;97429.22;;;11.15;57.26
76216;BME280;65010;50.190;18.930;2024-03-23T05:48:25;97429.63;;;11.12;56.79
76216;BME280;65010;50.190;18.930;2024-03-23T05:51:28;97425.56;;;11.09;57.15
76216;BME280;65010;50.190;18.930;2024-03-23T05:54:29;97422.94;;;11.09;57.19
76216;BME280;65010;50.190;18.930;2024-03-23T05:57:34;97419.91;;;11.06;56.93
76216;BME280;65010;50.190;18.930;2024-03-23T06:00:36;97406.34;;;11.02;57.15
76216;BME280;65010;50.190;18.930;2024-03-23T06:03:39;97383.50;;;10.96;57.26
76216;BME280;65010;50.190;18.930;2024-03-23T06:06:40;97391.38;;;10.96;57.93
76216;BME280;65010;50.190;18.930;2024-03-23T06:09:43;97387.72;;;10.91;57.98
76216;BME280;65010;50.190;18.930;2024-03-23T06:12:48;97385.28;;;10.89;57.74
76216;BME280;65010;50.190;18.930;2024-03-23T06:15:51;97384.47;;;10.88;58.04
76216;BME280;65010;50.190;18.930;2024-03-23T06:18:53;97375.19;;;10.93;58.15
76216;BME280;65010;50.190;18.930;2024-03-23T06:21:56;97382.88;;;10.94;58.01
76216;BME280;65010;50.190;18.930;2024-03-23T06:24:58;97376.22;;;10.98;58.20
76216;BME280;65010;50.190;18.930;2024-03-23T06:28:03;97364.69;;;11.06;58.66
76216;BME280;65010;50.190;18.930;2024-03-23T06:31:08;97366.31;;;11.14;58.63
76216;BME280;65010;50.190;18.930;2024-03-23T06:34:11;97361.03;;;11.14;58.04
76216;BME280;65010;50.190;18.930;2024-03-23T06:37:12;97366.72;;;11.04;57.27
76216;BME280;65010;50.190;18.930;2024-03-23T06:40:15;97364.25;;;10.96;57.00
76216;BME280;65010;50.190;18.930;2024-03-23T06:43:19;97364.25;;;10.96;58.04
76216;BME280;65010;50.190;18.930;2024-03-23T06:46:22;97360.22;;;11.00;58.02
76216;BME280;65010;50.190;18.930;2024-03-23T06:49:23;97360.03;;;11.01;57.35
76216;BME280;65010;50.190;18.930;2024-03-23T06:52:26;97361.03;;;11.00;56.96
76216;BME280;65010;50.190;18.930;2024-03-23T06:55:28;97359.22;;;11.07;57.18
76216;BME280;65010;50.190;18.930;2024-03-23T06:58:33;97356.03;;;11.25;57.19
76216;BME280;65010;50.190;18.930;2024-03-23T07:01:34;97345.69;;;11.44;57.37
76216;BME280;65010;50.190;18.930;2024-03-23T07:04:37;97338.19;;;11.61;56.44
76216;BME280;65010;50.190;18.930;2024-03-23T07:07:39;97344.84;;;11.77;56.25
76216;BME280;65010;50.190;18.930;2024-03-23T07:10:41;97343.19;;;11.96;56.04
76216;BME280;65010;50.190;18.930;2024-03-23T07:13:46;97339.47;;;12.10;55.45
76216;BME280;65010;50.190;18.930;2024-03-23T07:16:49;97340.28;;;12.17;54.95
76216;BME280;65010;50.190;18.930;2024-03-23T07:19:51;97340.59;;;12.34;54.87
76216;BME280;65010;50.190;18.930;2024-03-23T07:22:53;97342.59;;;12.45;53.04
76216;BME280;65010;50.190;18.930;2024-03-23T07:25:58;97343.09;;;12.67;53.00
76216;BME280;65010;50.190;18.930;2024-03-23T07:29:03;97334.88;;;12.89;52.52
76216;BME280;65010;50.190;18.930;2024-03-23T07:32:05;97332.06;;;13.09;51.98
76216;BME280;65010;50.190;18.930;2024-03-23T07:35:08;97330.19;;;13.16;51.26
76216;BME280;65010;50.190;18.930;2024-03-23T07:38:10;97331.16;;;13.22;50.78
76216;BME280;65010;50.190;18.930;2024-03-23T07:41:16;97330.31;;;13.28;49.71
76216;BME280;65010;50.190;18.930;2024-03-23T07:44:21;97327.47;;;13.30;50.35
76216;BME280;65010;50.190;18.930;2024-03-23T07:47:23;97332.34;;;13.26;49.96
76216;BME280;65010;50.190;18.930;2024-03-23T07:50:25;97317.50;;;13.32;49.79
76216;BME280;65010;50.190;18.930;2024-03-23T07:53:27;97313.81;;;13.58;49.82
76216;BME280;65010;50.190;18.930;2024-03-23T07:56:29;97300.94;;;13.86;48.99
76216;BME280;65010;50.190;18.930;2024-03-23T07:59:34;97298.81;;;14.25;48.06
76216;BME280;65010;50.190;18.930;2024-03-23T08:02:36;97288.81;;;14.76;47.87
76216;BME280;65010;50.190;18.930;2024-03-23T08:05:38;97276.78;;;15.27;45.43
76216;BME280;65010;50.190;18.930;2024-03-23T08:08:41;97277.00;;;15.85;45.16
76216;BME280;65010;50.190;18.930;2024-03-23T08:11:45;97268.13;;;16.49;42.82
76216;BME280;65010;50.190;18.930;2024-03-23T08:14:50;97265.94;;;16.91;40.32
76216;BME280;65010;50.190;18.930;2024-03-23T08:17:52;97258.53;;;17.44;39.86
76216;BME280;65010;50.190;18.930;2024-03-23T08:20:57;97252.84;;;17.96;38.68
76216;BME280;65010;50.190;18.930;2024-03-23T08:24:00;97249.44;;;18.28;36.67
76216;BME280;65010;50.190;18.930;2024-03-23T08:27:02;97247.00;;;18.76;38.01
76216;BME280;65010;50.190;18.930;2024-03-23T08:30:08;97235.41;;;18.92;35.37
76216;BME280;65010;50.190;18.930;2024-03-23T08:33:10;97236.44;;;18.86;35.26
76216;BME280;65010;50.190;18.930;2024-03-23T08:36:12;97222.47;;;18.69;34.65
76216;BME280;65010;50.190;18.930;2024-03-23T08:39:14;97217.84;;;18.59;35.53
76216;BME280;65010;50.190;18.930;2024-03-23T08:42:16;97222.56;;;18.52;34.76
76216;BME280;65010;50.190;18.930;2024-03-23T08:45:21;97207.69;;;18.51;34.06
76216;BME280;65010;50.190;18.930;2024-03-23T08:48:23;97201.63;;;18.60;34.55
76216;BME280;65010;50.190;18.930;2024-03-23T08:51:25;97193.97;;;18.42;34.61
76216;BME280;65010;50.190;18.930;2024-03-23T08:54:27;97195.06;;;18.73;34.80
76216;BME280;65010;50.190;18.930;2024-03-23T08:57:29;97181.53;;;19.17;34.65
76216;BME280;65010;50.190;18.930;2024-03-23T09:00:37;97170.56;;;19.67;33.31
76216;BME280;65010;50.190;18.930;2024-03-23T09:03:39;97176.63;;;20.30;32.73
76216;BME280;65010;50.190;18.930;2024-03-23T09:06:42;97163.03;;;20.62;31.03
76216;BME280;65010;50.190;18.930;2024-03-23T09:09:44;97164.88;;;20.98;30.18
76216;BME280;65010;50.190;18.930;2024-03-23T09:12:47;97167.53;;;21.13;29.60
76216;BME280;65010;50.190;18.930;2024-03-23T09:15:52;97173.63;;;21.34;30.17
76216;BME280;65010;50.190;18.930;2024-03-23T09:18:55;97147.47;;;21.16;28.83
76216;BME280;65010;50.190;18.930;2024-03-23T09:21:56;97141.09;;;21.07;29.50
76216;BME280;65010;50.190;18.930;2024-03-23T09:24:59;97128.19;;;21.24;30.43
76216;BME280;65010;50.190;18.930;2024-03-23T09:28:01;97135.13;;;21.35;29.19
76216;BME280;65010;50.190;18.930;2024-03-23T09:31:08;97124.63;;;21.54;29.24
76216;BME280;65010;50.190;18.930;2024-03-23T09:34:10;97116.56;;;21.59;28.43
76216;BME280;65010;50.190;18.930;2024-03-23T09:37:12;97106.47;;;21.51;28.66
76216;BME280;65010;50.190;18.930;2024-03-23T09:40:14;97090.34;;;21.61;28.39
76216;BME280;65010;50.190;18.930;2024-03-23T09:43:16;97082.81;;;21.79;28.87
76216;BME280;65010;50.190;18.930;2024-03-23T09:46:20;97081.00;;;22.38;28.64
76216;BME280;65010;50.190;18.930;2024-03-23T09:49:23;97074.97;;;23.10;27.28
76216;BME280;65010;50.190;18.930;2024-03-23T09:52:25;97064.03;;;23.87;25.96
76216;BME280;65010;50.190;18.930;2024-03-23T09:55:28;97046.19;;;24.48;24.79
76216;BME280;65010;50.190;18.930;2024-03-23T09:58:29;97048.97;;;25.26;23.48
76216;BME280;65010;50.190;18.930;2024-03-23T10:01:35;97038.28;;;26.08;24.09
76216;BME280;65010;50.190;18.930;2024-03-23T10:04:37;97038.28;;;27.02;23.00
76216;BME280;65010;50.190;18.930;2024-03-23T10:07:40;97024.91;;;27.80;21.93
76216;BME280;65010;50.190;18.930;2024-03-23T10:10:42;97034.44;;;28.21;19.71
76216;BME280;65010;50.190;18.930;2024-03-23T10:13:46;97019.44;;;28.32;19.85
76216;BME280;65010;50.190;18.930;2024-03-23T10:16:50;97017.28;;;28.64;20.72
76216;BME280;65010;50.190;18.930;2024-03-23T10:19:55;97007.91;;;29.00;19.94
76216;BME280;65010;50.190;18.930;2024-03-23T10:22:57;97004.69;;;29.58;19.49
76216;BME280;65010;50.190;18.930;2024-03-23T10:26:12;96995.19;;;29.85;18.43
76216;BME280;65010;50.190;18.930;2024-03-23T10:29:17;96992.16;;;29.86;18.38
76216;BME280;65010;50.190;18.930;2024-03-23T10:32:22;96992.94;;;30.08;18.20
76216;BME280;65010;50.190;18.930;2024-03-23T10:35:24;96991.22;;;30.15;18.21
76216;BME280;65010;50.190;18.930;2024-03-23T10:38:26;96986.69;;;30.65;18.81
76216;BME280;65010;50.190;18.930;2024-03-23T10:41:28;96980.59;;;30.68;17.40
76216;BME280;65010;50.190;18.930;2024-03-23T10:44:34;96980.03;;;30.63;17.14
76216;BME280;65010;50.190;18.930;2024-03-23T10:47:38;96969.41;;;30.82;17.21
76216;BME280;65010;50.190;18.930;2024-03-23T10:50:41;96954.69;;;31.08;16.63
76216;BME280;65010;50.190;18.930;2024-03-23T10:53:45;96957.41;;;31.48;16.97
76216;BME280;65010;50.190;18.930;2024-03-23T10:57:03;96951.59;;;31.62;16.83
76216;BME280;65010;50.190;18.930;2024-03-23T11:00:09;96938.50;;;31.80;16.68
76216;BME280;65010;50.190;18.930;2024-03-23T11:03:34;96932.59;;;32.06;15.57
76216;BME280;65010;50.190;18.930;2024-03-23T11:06:38;96919.16;;;31.82;15.30
76216;BME280;65010;50.190;18.930;2024-03-23T11:09:41;96917.81;;;31.47;15.23
76216;BME280;65010;50.190;18.930;2024-03-23T11:12:45;96894.41;;;31.55;15.95
76216;BME280;65010;50.190;18.930;2024-03-23T11:15:47;96884.06;;;31.77;15.65
76216;BME280;65010;50.190;18.930;2024-03-23T11:18:52;96874.25;;;31.72;15.30
76216;BME280;65010;50.190;18.930;2024-03-23T11:21:55;96839.19;;;31.51;15.72
76216;BME280;65010;50.190;18.930;2024-03-23T11:24:57;96852.19;;;31.58;15.78
76216;BME280;65010;50.190;18.930;2024-03-23T11:28:11;96847.03;;;31.84;16.13
76216;BME280;65010;50.190;18.930;2024-03-23T11:31:14;96844.75;;;32.02;15.08
76216;BME280;65010;50.190;18.930;2024-03-23T11:34:22;96816.72;;;32.14;15.14
76216;BME280;65010;50.190;18.930;2024-03-23T11:37:24;96809.44;;;32.54;15.37
76216;BME280;65010;50.190;18.930;2024-03-23T11:40:26;96812.19;;;32.93;14.88
76216;BME280;65010;50.190;18.930;2024-03-23T11:43:28;96799.47;;;32.42;14.03
76216;BME280;65010;50.190;18.930;2024-03-23T11:46:30;96779.88;;;32.17;14.77
76216;BME280;65010;50.190;18.930;2024-03-23T11:49:34;96768.41;;;32.23;14.78
76216;BME280;65010;50.190;18.930;2024-03-23T11:52:38;96784.72;;;32.07;13.95
76216;BME280;65010;50.190;18.930;2024-03-23T11:55:41;96769.56;;;31.75;14.05
76216;BME280;65010;50.190;18.930;2024-03-23T11:58:44;96760.53;;;31.70;14.72
76216;BME280;65010;50.190;18.930;2024-03-23T12:01:46;96754.38;;;32.41;15.39
76216;BME280;65010;50.190;18.930;2024-03-23T12:04:51;96750.91;;;32.99;13.82
76216;BME280;65010;50.190;18.930;2024-03-23T12:11:20;96725.78;;;32.86;13.53
76216;BME280;65010;50.190;18.930;2024-03-23T12:14:22;96718.41;;;32.67;13.62
76216;BME280;65010;50.190;18.930;2024-03-23T12:17:24;96719.50;;;32.62;13.48
76216;BME280;65010;50.190;18.930;2024-03-23T12:20:28;96711.25;;;32.78;13.71
76216;BME280;65010;50.190;18.930;2024-03-23T12:23:31;96721.38;;;33.01;13.11
76216;BME280;65010;50.190;18.930;2024-03-23T12:26:33;96683.88;;;33.10;13.03
76216;BME280;65010;50.190;18.930;2024-03-23T12:29:36;96675.78;;;33.14;13.02
76216;BME280;65010;50.190;18.930;2024-03-23T12:32:37;96680.53;;;33.20;12.32
76216;BME280;65010;50.190;18.930;2024-03-23T12:35:42;96666.31;;;33.30;12.79
76216;BME280;65010;50.190;18.930;2024-03-23T12:38:44;96655.22;;;33.43;12.54
76216;BME280;65010;50.190;18.930;2024-03-23T12:41:47;96660.56;;;33.13;12.14
76216;BME280;65010;50.190;18.930;2024-03-23T12:44:48;96637.81;;;32.78;11.66
76216;BME280;65010;50.190;18.930;2024-03-23T12:47:51;96643.75;;;32.45;11.73
76216;BME280;65010;50.190;18.930;2024-03-23T12:50:57;96637.25;;;32.49;12.31
76216;BME280;65010;50.190;18.930;2024-03-23T12:53:59;96633.91;;;32.56;12.04
76216;BME280;65010;50.190;18.930;2024-03-23T12:57:01;96631.25;;;32.40;12.69
76216;BME280;65010;50.190;18.930;2024-03-23T13:00:04;96622.06;;;32.68;12.73
76216;BME280;65010;50.190;18.930;2024-03-23T13:03:13;96631.59;;;32.78;13.04
76216;BME280;65010;50.190;18.930;2024-03-23T13:06:19;96620.75;;;33.04;12.72
76216;BME280;65010;50.190;18.930;2024-03-23T13:09:21;96649.34;;;33.41;11.87
76216;BME280;65010;50.190;18.930;2024-03-23T13:12:23;96625.97;;;32.47;12.44
76216;BME280;65010;50.190;18.930;2024-03-23T13:15:25;96630.81;;;31.64;13.05
76216;BME280;65010;50.190;18.930;2024-03-23T13:18:27;96621.34;;;30.62;13.86
76216;BME280;65010;50.190;18.930;2024-03-23T13:21:32;96619.34;;;29.90;14.78
76216;BME280;65010;50.190;18.930;2024-03-23T13:24:34;96628.84;;;29.35;15.11
76216;BME280;65010;50.190;18.930;2024-03-23T13:27:36;96627.41;;;28.46;15.85
76216;BME280;65010;50.190;18.930;2024-03-23T13:30:39;96617.78;;;27.44;16.86
76216;BME280;65010;50.190;18.930;2024-03-23T13:33:40;96625.59;;;26.98;17.50
76216;BME280;65010;50.190;18.930;2024-03-23T13:36:47;96649.47;;;26.35;18.12
76216;BME280;65010;50.190;18.930;2024-03-23T13:39:49;96667.34;;;25.38;19.03
76216;BME280;65010;50.190;18.930;2024-03-23T13:42:51;96689.53;;;24.59;20.48
76216;BME280;65010;50.190;18.930;2024-03-23T13:45:55;96742.38;;;23.72;26.29
76216;BME280;65010;50.190;18.930;2024-03-23T13:49:01;96819.97;;;22.65;32.25
76216;BME280;65010;50.190;18.930;2024-03-23T13:52:05;96899.31;;;21.14;38.56
76216;BME280;65010;50.190;18.930;2024-03-23T13:55:08;96869.66;;;19.86;42.45
76216;BME280;65010;50.190;18.930;2024-03-23T13:58:10;96923.34;;;18.75;42.85
76216;BME280;65010;50.190;18.930;2024-03-23T14:01:16;96943.09;;;17.89;44.89
76216;BME280;65010;50.190;18.930;2024-03-23T14:04:19;96968.13;;;17.11;46.70
76216;BME280;65010;50.190;18.930;2024-03-23T14:07:23;96974.84;;;16.31;48.97
76216;BME280;65010;50.190;18.930;2024-03-23T14:10:25;96972.47;;;15.78;50.03
76216;BME280;65010;50.190;18.930;2024-03-23T14:13:28;96963.72;;;15.32;51.96
76216;BME280;65010;50.190;18.930;2024-03-23T14:16:31;96968.28;;;14.91;54.77
76216;BME280;65010;50.190;18.930;2024-03-23T14:19:33;96959.72;;;14.72;53.50
76216;BME280;65010;50.190;18.930;2024-03-23T14:22:38;96941.88;;;14.56;54.26
76216;BME280;65010;50.190;18.930;2024-03-23T14:25:41;96902.75;;;14.41;54.19
76216;BME280;65010;50.190;18.930;2024-03-23T14:28:43;96889.41;;;14.36;53.98
76216;BME280;65010;50.190;18.930;2024-03-23T14:31:45;96896.88;;;14.39;54.53
76216;BME280;65010;50.190;18.930;2024-03-23T14:34:47;96899.75;;;14.37;54.32
76216;BME280;65010;50.190;18.930;2024-03-23T14:37:52;96883.91;;;14.37;54.39
76216;BME280;65010;50.190;18.930;2024-03-23T14:40:58;96884.03;;;14.42;54.64
76216;BME280;65010;50.190;18.930;2024-03-23T14:44:01;96882.72;;;14.57;54.23
76216;BME280;65010;50.190;18.930;2024-03-23T14:47:03;96888.63;;;14.64;54.37
76216;BME280;65010;50.190;18.930;2024-03-23T14:50:06;96871.66;;;14.60;53.80
76216;BME280;65010;50.190;18.930;2024-03-23T14:53:12;96876.06;;;14.54;53.70
76216;BME280;65010;50.190;18.930;2024-03-23T14:56:14;96887.19;;;14.56;53.56
76216;BME280;65010;50.190;18.930;2024-03-23T14:59:19;96884.56;;;14.56;53.86
76216;BME280;65010;50.190;18.930;2024-03-23T15:02:22;96911.38;;;14.48;53.95
76216;BME280;65010;50.190;18.930;2024-03-23T15:05:25;96931.28;;;14.03;55.24
76216;BME280;65010;50.190;18.930;2024-03-23T15:08:33;96940.81;;;13.69;56.13
76216;BME280;65010;50.190;18.930;2024-03-23T15:11:35;96950.13;;;13.30;57.48
76216;BME280;65010;50.190;18.930;2024-03-23T15:14:37;96949.56;;;12.97;58.68
76216;BME280;65010;50.190;18.930;2024-03-23T15:17:39;96948.06;;;12.71;59.23
76216;BME280;65010;50.190;18.930;2024-03-23T15:20:51;96947.03;;;12.54;59.82
76216;BME280;65010;50.190;18.930;2024-03-23T15:23:57;96946.72;;;12.43;61.05
76216;BME280;65010;50.190;18.930;2024-03-23T15:26:59;96933.91;;;12.28;61.75
76216;BME280;65010;50.190;18.930;2024-03-23T15:30:01;96935.06;;;12.14;62.09
76216;BME280;65010;50.190;18.930;2024-03-23T15:33:04;96937.94;;;12.13;62.34
76216;BME280;65010;50.190;18.930;2024-03-23T15:36:06;96920.13;;;12.08;62.70
76216;BME280;65010;50.190;18.930;2024-03-23T15:39:12;96910.84;;;12.05;63.02
76216;BME280;65010;50.190;18.930;2024-03-23T15:42:14;96923.81;;;12.07;62.28
76216;BME280;65010;50.190;18.930;2024-03-23T15:45:20;96943.22;;;12.13;62.68
76216;BME280;65010;50.190;18.930;2024-03-23T15:48:21;96939.03;;;12.05;62.16
76216;BME280;65010;50.190;18.930;2024-03-23T15:51:24;96937.47;;;11.97;63.30
76216;BME280;65010;50.190;18.930;2024-03-23T15:54:29;96938.72;;;11.95;62.87
76216;BME280;65010;50.190;18.930;2024-03-23T15:57:32;96945.78;;;11.94;63.08
76216;BME280;65010;50.190;18.930;2024-03-23T16:00:34;96956.84;;;11.84;63.50
76216;BME280;65010;50.190;18.930;2024-03-23T16:03:38;96963.59;;;11.74;63.43
76216;BME280;65010;50.190;18.930;2024-03-23T16:06:40;96978.66;;;11.66;63.17
76216;BME280;65010;50.190;18.930;2024-03-23T16:09:47;96973.84;;;11.57;62.94
76216;BME280;65010;50.190;18.930;2024-03-23T16:12:49;96963.81;;;11.47;63.07
76216;BME280;65010;50.190;18.930;2024-03-23T16:15:55;96969.91;;;11.41;63.25
76216;BME280;65010;50.190;18.930;2024-03-23T16:18:57;96959.25;;;11.29;63.50
76216;BME280;65010;50.190;18.930;2024-03-23T16:22:00;96961.09;;;11.28;63.04
76216;BME280;65010;50.190;18.930;2024-03-23T16:25:05;96972.03;;;11.19;64.72
76216;BME280;65010;50.190;18.930;2024-03-23T16:28:08;96996.38;;;11.07;65.28
76216;BME280;65010;50.190;18.930;2024-03-23T16:31:09;97095.50;;;10.94;65.59
76216;BME280;65010;50.190;18.930;2024-03-23T16:34:13;97100.25;;;10.58;65.00
76216;BME280;65010;50.190;18.930;2024-03-23T16:37:15;97101.25;;;10.37;65.61
76216;BME280;65010;50.190;18.930;2024-03-23T16:40:20;97116.41;;;10.15;66.40
76216;BME280;65010;50.190;18.930;2024-03-23T16:43:22;97130.13;;;9.91;67.68
76216;BME280;65010;50.190;18.930;2024-03-23T16:46:26;97150.50;;;9.82;68.06
76216;BME280;65010;50.190;18.930;2024-03-23T16:49:31;97189.06;;;9.81;68.07
76216;BME280;65010;50.190;18.930;2024-03-23T16:52:33;97187.94;;;9.69;68.32